Time;durP1;ratioP1;P1;durP2;ratioP2;P2;SDS_P1;SDS_P2;PMS_P1;PMS_P2;Temp;Humidity;BMP_temperature;BMP_pressure;BME280_temperature;BME280_humidity;BME280_pressure;Samples;Min_cycle;Max_cycle;Signal;HPM_P1;HPM_P2
2024/02/20 00:01:48;;;;;;;7.82;4.72;;;;;;;7.59;100.00;100905.59;5092868;28;20405;-44
2024/02/20 00:04:18;;;;;;;7.15;4.43;;;;;;;7.62;100.00;100911.63;5092481;28;20048;-46
2024/02/20 00:06:48;;;;;;;7.97;4.68;;;;;;;7.63;100.00;100904.56;5092967;28;20047;-45
2024/02/20 00:09:17;;;;;;;8.38;4.50;;;;;;;7.64;100.00;100903.63;5092872;28;20086;-47
2024/02/20 00:11:46;;;;;;;7.63;4.50;;;;;;;7.56;100.00;100903.91;5092568;28;20048;-45
2024/02/20 00:14:15;;;;;;;7.75;4.70;;;;;;;7.61;100.00;100909.03;5092928;28;20063;-46
2024/02/20 00:16:43;;;;;;;8.32;4.60;;;;;;;7.58;100.00;100904.72;5092959;28;20048;-45
2024/02/20 00:19:11;;;;;;;6.90;4.15;;;;;;;7.54;100.00;100908.44;5092794;28;20112;-45
2024/02/20 00:21:41;;;;;;;7.15;4.60;;;;;;;7.43;100.00;100890.25;5092572;28;20047;-47
2024/02/20 00:24:11;;;;;;;9.95;5.00;;;;;;;7.40;100.00;100894.78;5092586;28;20444;-47
2024/02/20 00:26:39;;;;;;;7.57;4.70;;;;;;;7.36;100.00;100896.69;5092843;28;20133;-46
2024/02/20 00:29:07;;;;;;;6.80;4.30;;;;;;;7.51;100.00;100897.03;5092718;28;20044;-46
2024/02/20 00:31:36;;;;;;;7.40;4.35;;;;;;;7.45;100.00;100892.84;5092555;28;20044;-46
2024/02/20 00:34:05;;;;;;;7.38;4.75;;;;;;;7.40;100.00;100900.97;5092517;28;20044;-45
2024/02/20 00:36:33;;;;;;;6.63;4.43;;;;;;;7.36;100.00;100901.13;5092333;28;20055;-46
2024/02/20 00:39:03;;;;;;;7.95;4.22;;;;;;;7.32;100.00;100902.16;5092253;28;20055;-45
2024/02/20 00:41:33;;;;;;;7.53;4.40;;;;;;;7.28;100.00;100901.41;5092601;28;20127;-44
2024/02/20 00:44:01;;;;;;;9.10;4.43;;;;;;;7.28;100.00;100898.75;5092385;28;20047;-47
2024/02/20 00:46:30;;;;;;;6.90;4.28;;;;;;;7.34;100.00;100895.03;5092439;28;20040;-43
2024/02/20 00:48:59;;;;;;;8.18;4.30;;;;;;;7.35;100.00;100892.31;5092677;28;20189;-48
2024/02/20 00:51:27;;;;;;;6.20;4.22;;;;;;;7.23;100.00;100891.88;5092286;28;20131;-45
2024/02/20 00:53:55;;;;;;;7.30;4.68;;;;;;;7.19;100.00;100888.47;5092313;28;20052;-46
2024/02/20 00:56:24;;;;;;;6.68;3.97;;;;;;;7.19;100.00;100891.13;5092055;28;20435;-45
2024/02/20 00:58:54;;;;;;;6.50;3.85;;;;;;;7.24;100.00;100888.28;5091906;28;20405;-47
2024/02/20 01:01:22;;;;;;;8.30;4.38;;;;;;;7.15;100.00;100877.13;5091929;28;20139;-44
2024/02/20 01:03:51;;;;;;;6.35;4.40;;;;;;;7.19;100.00;100880.50;5091769;28;20044;-44
2024/02/20 01:06:20;;;;;;;7.05;4.15;;;;;;;7.12;100.00;100879.88;5091739;28;20476;-45
2024/02/20 01:08:48;;;;;;;6.35;4.10;;;;;;;7.11;100.00;100883.44;5092085;28;20087;-44
2024/02/20 01:11:17;;;;;;;7.15;4.20;;;;;;;7.00;100.00;100879.44;5091954;28;20413;-45
2024/02/20 01:13:46;;;;;;;6.75;4.07;;;;;;;7.04;100.00;100873.09;5091676;28;20113;-46
2024/02/20 01:16:20;;;;;;;7.18;4.38;;;;;;;7.04;100.00;100875.75;5090592;28;20443;-44
2024/02/20 01:18:48;;;;;;;7.90;4.47;;;;;;;7.05;100.00;100866.91;5091447;28;20044;-46
2024/02/20 01:21:17;;;;;;;6.90;3.78;;;;;;;6.92;100.00;100871.75;5091741;28;20123;-45
2024/02/20 01:23:45;;;;;;;8.40;4.15;;;;;;;6.99;100.00;100867.09;5092056;28;20063;-47
2024/02/20 01:26:14;;;;;;;7.13;3.65;;;;;;;6.98;100.00;100857.41;5091887;28;20046;-45
2024/02/20 01:28:43;;;;;;;8.57;4.03;;;;;;;6.96;100.00;100860.13;5091589;28;20047;-46
2024/02/20 01:31:16;;;;;;;6.97;3.83;;;;;;;7.03;100.00;100858.97;5091203;28;20397;-44
2024/02/20 01:33:46;;;;;;;8.18;4.03;;;;;;;7.14;100.00;100850.63;5091747;28;20047;-44
2024/02/20 01:36:14;;;;;;;6.78;3.75;;;;;;;7.14;100.00;100850.63;5091126;28;20072;-44
2024/02/20 01:38:43;;;;;;;6.32;3.20;;;;;;;7.19;100.00;100838.06;5091092;28;20052;-46
2024/02/20 01:41:11;;;;;;;5.82;3.47;;;;;;;7.26;100.00;100838.72;5091195;28;20048;-45
2024/02/20 01:43:39;;;;;;;5.38;2.92;;;;;;;7.24;100.00;100836.13;5091045;28;20083;-45
2024/02/20 01:46:09;;;;;;;5.90;3.20;;;;;;;7.33;100.00;100835.75;5090985;28;20055;-45
2024/02/20 01:48:38;;;;;;;4.70;2.58;;;;;;;7.35;100.00;100841.03;5091238;28;20083;-45
2024/02/20 01:51:08;;;;;;;5.68;2.97;;;;;;;7.34;100.00;100834.00;5091265;28;20476;-45
2024/02/20 01:53:36;;;;;;;6.43;3.40;;;;;;;7.42;100.00;100839.84;5090909;28;20056;-45
2024/02/20 01:56:06;;;;;;;6.95;3.38;;;;;;;7.28;100.00;100821.81;5090742;28;20083;-46
2024/02/20 01:58:35;;;;;;;7.93;3.17;;;;;;;7.24;100.00;100835.22;5090823;28;20048;-46
2024/02/20 02:01:04;;;;;;;6.88;3.50;;;;;;;7.20;100.00;100830.97;5090865;28;20050;-47
2024/02/20 02:03:33;;;;;;;6.25;3.30;;;;;;;7.10;100.00;100839.25;5090935;28;20054;-45
2024/02/20 02:06:02;;;;;;;5.00;3.30;;;;;;;7.13;100.00;100832.97;5091005;28;20103;-45
2024/02/20 02:08:32;;;;;;;5.88;3.45;;;;;;;7.12;100.00;100847.16;5090803;28;20070;-45
2024/02/20 02:11:00;;;;;;;7.85;3.85;;;;;;;7.07;100.00;100839.38;5090640;28;20051;-45
2024/02/20 02:13:28;;;;;;;5.63;3.63;;;;;;;6.90;100.00;100831.16;5090930;28;20172;-45
2024/02/20 02:15:57;;;;;;;6.35;3.60;;;;;;;6.95;100.00;100834.53;5090766;28;20051;-45
2024/02/20 02:18:25;;;;;;;5.63;3.25;;;;;;;6.92;100.00;100839.06;5091015;28;20044;-46
2024/02/20 02:20:54;;;;;;;5.95;3.30;;;;;;;6.87;100.00;100832.16;5090720;28;20127;-45
2024/02/20 02:23:22;;;;;;;6.25;3.50;;;;;;;6.97;100.00;100837.13;5090712;28;20047;-47
2024/02/20 02:25:52;;;;;;;5.80;3.10;;;;;;;6.90;100.00;100839.13;5090772;28;20192;-45
2024/02/20 02:28:21;;;;;;;5.88;2.72;;;;;;;6.92;100.00;100828.44;5093481;28;20510;-46
2024/02/20 02:30:50;;;;;;;6.55;3.58;;;;;;;6.88;100.00;100833.00;5095234;28;20051;-45
2024/02/20 02:33:18;;;;;;;5.75;3.22;;;;;;;6.82;100.00;100823.47;5094989;28;20048;-46
2024/02/20 02:35:47;;;;;;;6.97;3.25;;;;;;;6.85;100.00;100836.66;5095122;28;20056;-46
2024/02/20 02:38:15;;;;;;;5.80;3.45;;;;;;;6.88;100.00;100833.88;5094670;28;20093;-47
2024/02/20 02:40:43;;;;;;;5.60;3.20;;;;;;;6.91;100.00;100847.94;5095042;28;20416;-45
2024/02/20 02:43:12;;;;;;;5.45;2.90;;;;;;;6.84;100.00;100847.28;5094708;28;20052;-49
2024/02/20 02:45:42;;;;;;;5.28;2.92;;;;;;;6.87;100.00;100842.75;5094733;28;20044;-45
2024/02/20 02:48:11;;;;;;;4.75;2.95;;;;;;;6.86;100.00;100841.03;5094544;28;20076;-46
2024/02/20 02:50:39;;;;;;;6.43;3.20;;;;;;;6.84;100.00;100845.50;5094552;28;20044;-47
2024/02/20 02:53:07;;;;;;;4.32;2.78;;;;;;;6.80;100.00;100841.22;5094388;28;20056;-46
2024/02/20 02:55:36;;;;;;;5.65;2.75;;;;;;;6.85;100.00;100846.34;5094363;28;20044;-45
2024/02/20 02:58:05;;;;;;;5.32;3.25;;;;;;;6.95;100.00;100836.28;5094150;28;20475;-47
2024/02/20 03:00:33;;;;;;;4.10;2.50;;;;;;;6.97;100.00;100839.78;5094086;28;20048;-46
2024/02/20 03:03:04;;;;;;;4.68;2.80;;;;;;;6.97;100.00;100845.09;5094045;28;20416;-45
2024/02/20 03:05:32;;;;;;;5.20;2.80;;;;;;;6.95;100.00;100849.56;5094182;28;20048;-45
2024/02/20 03:08:02;;;;;;;4.10;2.55;;;;;;;6.96;100.00;100846.00;5093836;28;20557;-45
2024/02/20 03:10:30;;;;;;;4.03;2.50;;;;;;;7.00;100.00;100852.91;5093945;28;20051;-46
2024/02/20 03:12:59;;;;;;;4.70;2.50;;;;;;;6.98;100.00;100855.63;5094024;28;20044;-47
2024/02/20 03:15:27;;;;;;;5.63;2.58;;;;;;;7.00;100.00;100855.56;5094805;28;20094;-45
2024/02/20 03:17:56;;;;;;;4.72;2.65;;;;;;;7.03;100.00;100852.81;5093749;28;20086;-46
2024/02/20 03:20:26;;;;;;;6.10;2.63;;;;;;;7.10;100.00;100851.66;5094081;28;20382;-46
2024/02/20 03:22:54;;;;;;;5.05;2.60;;;;;;;7.13;100.00;100843.59;5094191;28;20052;-46
2024/02/20 03:25:22;;;;;;;5.90;2.90;;;;;;;7.11;100.00;100848.09;5093730;28;20048;-45
2024/02/20 03:27:51;;;;;;;4.55;2.60;;;;;;;7.12;100.00;100849.81;5093686;28;20094;-45
2024/02/20 03:30:19;;;;;;;6.47;2.85;;;;;;;7.11;100.00;100851.59;5093388;28;20058;-49
2024/02/20 03:32:50;;;;;;;6.18;2.72;;;;;;;7.03;100.00;100855.44;5093459;28;20087;-46
2024/02/20 03:35:21;;;;;;;5.40;2.63;;;;;;;7.06;100.00;100863.31;5093736;28;20132;-45
2024/02/20 03:37:51;;;;;;;6.93;2.60;;;;;;;7.01;100.00;100863.47;5093562;28;20138;-47
2024/02/20 03:40:20;;;;;;;6.38;2.53;;;;;;;6.99;100.00;100851.19;5092589;28;20066;-46
2024/02/20 03:42:48;;;;;;;4.38;2.50;;;;;;;7.01;100.00;100854.66;5093282;28;20063;-45
2024/02/20 03:45:16;;;;;;;4.85;2.25;;;;;;;7.02;100.00;100870.50;5093213;28;20087;-45
2024/02/20 03:47:45;;;;;;;5.68;2.92;;;;;;;6.97;100.00;100859.22;5093390;28;20577;-45
2024/02/20 03:50:13;;;;;;;5.03;2.80;;;;;;;7.02;100.00;100856.38;5093421;28;20097;-45
2024/02/20 03:52:42;;;;;;;5.30;2.55;;;;;;;6.96;100.00;100861.91;5093247;28;20048;-47
2024/02/20 03:55:12;;;;;;;4.90;2.47;;;;;;;6.93;100.00;100859.34;5093135;28;20052;-45
2024/02/20 03:57:41;;;;;;;5.28;2.58;;;;;;;7.00;100.00;100864.41;5093004;28;20052;-46
2024/02/20 04:00:12;;;;;;;4.70;2.55;;;;;;;6.95;100.00;100876.06;5093325;28;20040;-46
2024/02/20 04:02:42;;;;;;;4.43;2.20;;;;;;;6.93;100.00;100875.25;5093322;28;20078;-45
2024/02/20 04:05:12;;;;;;;4.10;2.35;;;;;;;6.89;100.00;100880.69;5093160;28;20044;-45
2024/02/20 04:07:46;;;;;;;4.30;2.38;;;;;;;6.91;100.00;100879.75;5092943;28;20098;-47
2024/02/20 04:10:17;;;;;;;4.53;2.50;;;;;;;6.77;100.00;100886.44;5093037;28;20193;-46
2024/02/20 04:12:45;;;;;;;6.35;2.42;;;;;;;6.69;100.00;100885.81;5093337;28;20075;-46
2024/02/20 04:15:15;;;;;;;4.75;2.50;;;;;;;6.71;100.00;100876.03;5093441;28;20048;-45
2024/02/20 04:17:43;;;;;;;4.72;2.55;;;;;;;6.80;100.00;100878.34;5092908;28;20055;-45
2024/02/20 04:20:12;;;;;;;6.28;3.22;;;;;;;6.75;100.00;100876.78;5092806;28;20048;-46
2024/02/20 04:22:41;;;;;;;6.53;3.00;;;;;;;6.77;100.00;100875.81;5092647;28;20131;-44
2024/02/20 04:25:09;;;;;;;5.65;2.50;;;;;;;6.72;100.00;100880.41;5092621;28;20040;-46
2024/02/20 04:27:39;;;;;;;5.07;2.58;;;;;;;6.77;100.00;100881.13;5093001;28;20052;-46
2024/02/20 04:30:09;;;;;;;5.43;2.60;;;;;;;6.72;100.00;100893.66;5092831;28;20068;-46
2024/02/20 04:32:38;;;;;;;4.85;2.70;;;;;;;6.70;100.00;100882.25;5092716;28;20044;-46
2024/02/20 04:35:07;;;;;;;5.10;2.85;;;;;;;6.69;100.00;100884.94;5092889;28;20044;-45
2024/02/20 04:37:36;;;;;;;6.30;3.20;;;;;;;6.71;100.00;100888.41;5092467;28;20043;-46
2024/02/20 04:40:07;;;;;;;5.05;2.92;;;;;;;6.68;100.00;100883.22;5092438;28;20051;-46
2024/02/20 04:42:35;;;;;;;7.78;3.88;;;;;;;6.68;100.00;100888.53;5092439;28;20385;-45
2024/02/20 04:45:06;;;;;;;5.35;3.30;;;;;;;6.59;100.00;100887.06;5092360;28;20044;-45
2024/02/20 04:47:34;;;;;;;7.47;3.88;;;;;;;6.59;100.00;100884.41;5092069;28;20123;-46
2024/02/20 04:50:04;;;;;;;7.00;3.42;;;;;;;6.62;100.00;100883.41;5091683;28;20512;-46
2024/02/20 04:52:33;;;;;;;9.55;3.90;;;;;;;6.67;100.00;100887.66;5091979;28;20075;-45
2024/02/20 04:55:02;;;;;;;13.43;6.18;;;;;;;6.66;100.00;100880.63;5091660;28;20048;-46
2024/02/20 04:57:31;;;;;;;7.95;4.15;;;;;;;6.57;100.00;100887.09;5091946;28;20116;-46
2024/02/20 05:00:00;;;;;;;10.05;4.03;;;;;;;6.65;100.00;100886.81;5092252;28;20122;-46
2024/02/20 05:02:33;;;;;;;9.25;4.78;;;;;;;6.67;100.00;100887.66;5092127;28;20048;-46
2024/02/20 05:05:01;;;;;;;11.18;5.22;;;;;;;6.64;100.00;100887.75;5091759;28;20051;-45
2024/02/20 05:07:30;;;;;;;7.55;4.10;;;;;;;6.57;100.00;100880.94;5091625;28;20530;-44
2024/02/20 05:09:59;;;;;;;7.93;4.63;;;;;;;6.60;100.00;100887.00;5091643;28;20040;-45
2024/02/20 05:12:27;;;;;;;8.98;4.20;;;;;;;6.60;100.00;100886.13;5091821;28;20052;-46
2024/02/20 05:14:55;;;;;;;9.13;4.65;;;;;;;6.58;100.00;100895.94;5091575;28;20412;-45
2024/02/20 05:17:24;;;;;;;7.90;4.05;;;;;;;6.61;100.00;100898.47;5091739;28;20049;-46
2024/02/20 05:19:54;;;;;;;13.30;6.00;;;;;;;6.64;100.00;100894.84;5091667;28;20044;-44
2024/02/20 05:22:22;;;;;;;6.75;3.90;;;;;;;6.65;100.00;100892.13;5091593;28;20044;-45
2024/02/20 05:24:51;;;;;;;7.10;3.10;;;;;;;6.49;100.00;100896.22;5091344;28;20052;-46
2024/02/20 05:27:19;;;;;;;6.10;3.15;;;;;;;6.57;100.00;100892.41;5091666;28;20135;-45
2024/02/20 05:29:47;;;;;;;7.50;3.55;;;;;;;6.47;100.00;100898.06;5091405;28;20433;-46
2024/02/20 05:32:16;;;;;;;5.70;3.08;;;;;;;6.48;100.00;100900.66;5091105;28;20054;-46
2024/02/20 05:34:44;;;;;;;5.90;3.05;;;;;;;6.48;100.00;100907.75;5091222;28;20036;-46
2024/02/20 05:37:14;;;;;;;5.88;3.30;;;;;;;6.39;100.00;100902.75;5090894;28;20504;-45
2024/02/20 05:39:43;;;;;;;7.00;3.20;;;;;;;6.35;100.00;100911.69;5090879;28;20040;-46
2024/02/20 05:42:11;;;;;;;6.75;3.67;;;;;;;6.43;100.00;100914.97;5091002;28;20100;-45
2024/02/20 05:44:40;;;;;;;6.15;3.75;;;;;;;6.47;100.00;100916.63;5090719;28;20480;-45
2024/02/20 05:47:08;;;;;;;5.63;3.75;;;;;;;6.51;100.00;100910.28;5091409;28;20400;-46
2024/02/20 05:49:37;;;;;;;7.20;4.20;;;;;;;6.57;100.00;100915.41;5091089;28;20052;-45
2024/02/20 05:52:06;;;;;;;9.02;4.03;;;;;;;6.65;100.00;100923.94;5090974;28;20056;-46
2024/02/20 05:54:36;;;;;;;7.38;3.40;;;;;;;6.70;100.00;100916.72;5090758;28;20090;-46
2024/02/20 05:57:05;;;;;;;7.40;3.45;;;;;;;6.78;100.00;100922.63;5091056;28;20047;-46
2024/02/20 05:59:33;;;;;;;8.98;2.95;;;;;;;6.80;100.00;100920.78;5090694;28;20485;-47
2024/02/20 06:02:02;;;;;;;6.57;3.03;;;;;;;6.82;100.00;100921.59;5090416;28;20413;-48
2024/02/20 06:04:30;;;;;;;5.55;2.90;;;;;;;6.81;100.00;100926.94;5090826;28;20548;-48
2024/02/20 06:06:59;;;;;;;6.00;2.72;;;;;;;6.80;100.00;100926.09;5090844;28;20044;-46
2024/02/20 06:09:28;;;;;;;6.65;2.92;;;;;;;6.75;100.00;100925.34;5090469;28;20417;-47
2024/02/20 06:11:59;;;;;;;7.05;3.20;;;;;;;6.75;100.00;100930.66;5090860;28;20044;-45
2024/02/20 06:14:27;;;;;;;5.78;2.78;;;;;;;6.77;100.00;100930.63;5090997;28;20044;-47
2024/02/20 06:16:56;;;;;;;5.95;3.35;;;;;;;6.79;100.00;100931.44;5090523;28;20059;-44
2024/02/20 06:19:24;;;;;;;9.32;3.20;;;;;;;6.95;100.00;100937.06;5090447;28;20139;-47
2024/02/20 06:21:52;;;;;;;4.95;2.67;;;;;;;7.00;100.00;100933.34;5090657;28;20126;-46
2024/02/20 06:24:21;;;;;;;6.28;2.85;;;;;;;6.97;100.00;100937.91;5090742;28;20058;-46
2024/02/20 06:26:49;;;;;;;5.10;2.95;;;;;;;7.02;100.00;100944.78;5090470;28;20517;-46
2024/02/20 06:29:19;;;;;;;5.80;3.03;;;;;;;7.06;100.00;100941.13;5090359;28;20083;-46
2024/02/20 06:31:51;;;;;;;6.18;2.90;;;;;;;7.28;100.00;100948.31;5090322;28;20059;-45
2024/02/20 06:34:19;;;;;;;5.88;3.05;;;;;;;7.29;100.00;100945.59;5090354;28;20414;-45
2024/02/20 06:36:47;;;;;;;6.57;2.90;;;;;;;7.52;100.00;100957.16;5090218;28;20501;-44
2024/02/20 06:39:16;;;;;;;7.35;2.85;;;;;;;7.61;100.00;100956.84;5090038;28;20105;-46
2024/02/20 06:41:44;;;;;;;6.97;3.10;;;;;;;7.65;100.00;100954.03;5090363;28;20455;-45
2024/02/20 06:44:12;;;;;;;6.82;3.33;;;;;;;7.60;100.00;100949.78;5090509;28;20074;-44
2024/02/20 06:46:42;;;;;;;6.68;2.92;;;;;;;7.40;100.00;100948.72;5090246;28;20067;-46
2024/02/20 06:49:11;;;;;;;5.18;2.78;;;;;;;7.61;100.00;100956.84;5090375;28;20449;-44
2024/02/20 06:51:39;;;;;;;7.68;4.05;;;;;;;7.53;100.00;100950.94;5090449;28;20051;-46
2024/02/20 06:54:07;;;;;;;17.58;6.25;;;;;;;7.75;100.00;100950.09;5090095;28;20078;-46
2024/02/20 06:56:36;;;;;;;15.30;7.93;;;;;;;7.73;100.00;100951.97;5090460;28;20087;-47
2024/02/20 06:59:04;;;;;;;13.57;7.22;;;;;;;7.83;100.00;100949.81;5090367;28;20088;-47
2024/02/20 07:01:33;;;;;;;12.35;5.40;;;;;;;7.63;100.00;100952.34;5089958;28;20492;-45
2024/02/20 07:04:02;;;;;;;9.77;4.50;;;;;;;7.68;100.00;100958.34;5090506;28;20404;-46
2024/02/20 07:06:34;;;;;;;6.47;3.08;;;;;;;7.64;100.00;100967.38;5090169;28;20040;-45
2024/02/20 07:09:03;;;;;;;7.45;3.15;;;;;;;7.62;100.00;100954.13;5090334;28;20044;-47
2024/02/20 07:11:31;;;;;;;6.65;3.50;;;;;;;7.50;100.00;100970.50;5090350;28;20143;-46
2024/02/20 07:14:00;;;;;;;5.78;3.20;;;;;;;7.58;100.00;100962.25;5090634;28;20127;-48
2024/02/20 07:16:28;;;;;;;7.93;3.22;;;;;;;7.74;100.00;100963.44;5093685;28;20048;-44
2024/02/20 07:18:56;;;;;;;6.47;2.97;;;;;;;7.73;100.00;100967.88;5093676;28;20055;-44
2024/02/20 07:21:26;;;;;;;7.60;3.00;;;;;;;7.81;100.00;100967.59;5093527;28;20193;-45
2024/02/20 07:23:54;;;;;;;4.93;2.80;;;;;;;8.00;100.00;100965.97;5093497;28;20044;-44
2024/02/20 07:26:27;;;;;;;5.45;2.78;;;;;;;7.99;100.00;100966.88;5093660;28;20548;-45
2024/02/20 07:28:55;;;;;;;4.57;2.38;;;;;;;8.17;100.00;100972.44;5093474;28;20052;-45
2024/02/20 07:31:24;;;;;;;6.35;2.30;;;;;;;8.35;100.00;100979.72;5093391;28;20447;-45
2024/02/20 07:33:53;;;;;;;5.07;2.78;;;;;;;8.48;100.00;100972.13;5093916;28;20534;-45
2024/02/20 07:36:38;;;;;;;5.63;2.80;;;;;;;8.52;100.00;100963.97;5093826;28;20040;-45
2024/02/20 07:39:06;;;;;;;6.20;2.53;;;;;;;8.67;100.00;100967.78;5093278;28;20075;-46
2024/02/20 07:41:35;;;;;;;5.90;2.60;;;;;;;8.49;100.00;100973.84;5093753;28;20105;-45
2024/02/20 07:44:03;;;;;;;7.70;3.10;;;;;;;8.26;100.00;100975.59;5093459;28;20391;-45
2024/02/20 07:46:32;;;;;;;8.18;3.30;;;;;;;8.31;100.00;100975.44;5093111;28;20075;-44
2024/02/20 07:49:04;;;;;;;7.43;3.38;;;;;;;8.25;100.00;100980.97;5091830;28;20139;-47
2024/02/20 07:51:34;;;;;;;7.25;3.63;;;;;;;8.20;100.00;100986.47;5094610;28;20056;-46
2024/02/20 07:54:04;;;;;;;7.57;3.25;;;;;;;8.23;100.00;100993.47;5092295;28;20044;-46
2024/02/20 07:56:32;;;;;;;6.43;3.22;;;;;;;8.33;100.00;100989.53;5090916;28;20048;-46
2024/02/20 07:59:01;;;;;;;6.25;3.53;;;;;;;8.55;100.00;100993.09;5092730;28;20067;-46
2024/02/20 08:01:29;;;;;;;6.10;2.88;;;;;;;8.67;100.00;100986.41;5093152;28;20055;-45
2024/02/20 08:03:58;;;;;;;6.25;3.00;;;;;;;8.64;100.00;100983.00;5092988;28;20039;-43
2024/02/20 08:06:27;;;;;;;6.30;2.80;;;;;;;8.82;100.00;100987.59;5092551;28;20044;-47
2024/02/20 08:08:55;;;;;;;6.57;3.38;;;;;;;8.92;100.00;100980.94;5093260;28;20044;-43
2024/02/20 08:11:24;;;;;;;6.07;2.95;;;;;;;8.93;100.00;100985.34;5092929;28;20055;-44
2024/02/20 08:13:53;;;;;;;10.20;3.83;;;;;;;9.09;100.00;100983.78;5092670;28;20576;-45
2024/02/20 08:16:21;;;;;;;9.55;3.55;;;;;;;9.20;100.00;100983.31;5092700;28;20472;-45
2024/02/20 08:18:50;;;;;;;6.07;3.20;;;;;;;9.11;100.00;100979.25;5092172;28;20485;-44
2024/02/20 08:21:18;;;;;;;11.30;4.25;;;;;;;9.34;100.00;100980.91;5092725;28;20093;-45
2024/02/20 08:23:46;;;;;;;8.35;4.07;;;;;;;9.31;100.00;100986.38;5092576;28;20048;-44
2024/02/20 08:26:15;;;;;;;9.10;3.10;;;;;;;9.52;100.00;100991.69;5091990;28;20451;-44
2024/02/20 08:28:46;;;;;;;5.78;2.63;;;;;;;9.50;100.00;100985.56;5092324;28;20094;-44
2024/02/20 08:31:18;;;;;;;6.72;2.70;;;;;;;9.31;100.00;100983.72;5092445;28;20048;-45
2024/02/20 08:33:47;;;;;;;7.00;2.60;;;;;;;9.64;100.00;100978.69;5092243;28;20113;-45
2024/02/20 08:36:17;;;;;;;6.30;2.40;;;;;;;9.60;100.00;100976.25;5092843;28;20397;-43
2024/02/20 08:38:45;;;;;;;5.80;2.40;;;;;;;9.71;100.00;100974.81;5092288;28;20048;-44
2024/02/20 08:41:14;;;;;;;7.60;2.65;;;;;;;9.79;100.00;100987.78;5090820;28;20052;-46
2024/02/20 08:43:48;;;;;;;4.38;2.30;;;;;;;9.81;100.00;100979.72;5092459;28;20525;-48
2024/02/20 08:46:16;;;;;;;5.18;2.53;;;;;;;9.92;100.00;100986.28;5091804;28;20101;-45
2024/02/20 08:48:46;;;;;;;5.72;2.95;;;;;;;9.99;100.00;100977.09;5092202;28;20504;-44
2024/02/20 08:51:15;;;;;;;7.90;2.42;;;;;;;9.95;100.00;100986.19;5092394;28;20048;-44
2024/02/20 08:53:45;;;;;;;6.55;2.80;;;;;;;10.02;100.00;100986.72;5091936;28;20056;-47
2024/02/20 08:56:14;;;;;;;5.45;2.65;;;;;;;9.98;100.00;100982.50;5092067;28;20076;-44
2024/02/20 08:58:43;;;;;;;6.18;2.63;;;;;;;10.03;100.00;100988.47;5091993;28;20059;-45
2024/02/20 09:01:13;;;;;;;7.15;2.50;;;;;;;10.19;100.00;100986.81;5092035;28;20133;-44
2024/02/20 09:03:41;;;;;;;6.30;2.63;;;;;;;10.23;100.00;100996.47;5092188;28;20424;-47
2024/02/20 09:06:10;;;;;;;6.85;2.80;;;;;;;10.19;100.00;100991.28;5092057;28;20123;-44
2024/02/20 09:08:38;;;;;;;5.60;2.40;;;;;;;10.21;100.00;101002.75;5092010;28;20132;-45
2024/02/20 09:11:06;;;;;;;5.30;2.55;;;;;;;10.08;100.00;101005.13;5092019;28;20109;-45
2024/02/20 09:13:36;;;;;;;5.00;2.55;;;;;;;10.13;100.00;101004.88;5092278;28;20048;-45
2024/02/20 09:16:06;;;;;;;5.32;2.30;;;;;;;10.25;100.00;101007.03;5092055;28;20082;-46
2024/02/20 09:18:35;;;;;;;5.35;2.33;;;;;;;10.29;100.00;101009.47;5092013;28;20086;-45
2024/02/20 09:21:04;;;;;;;6.25;2.50;;;;;;;10.30;100.00;101005.88;5091629;28;20048;-46
2024/02/20 09:23:36;;;;;;;7.25;2.80;;;;;;;10.25;100.00;101002.56;5091686;28;20047;-46
2024/02/20 09:26:05;;;;;;;6.55;2.70;;;;;;;10.19;100.00;101007.28;5091737;28;20105;-45
2024/02/20 09:28:34;;;;;;;8.52;3.20;;;;;;;10.09;100.00;101006.84;5091500;28;20047;-46
2024/02/20 09:31:02;;;;;;;8.63;2.95;;;;;;;10.03;100.00;101009.78;5091710;28;20051;-45
2024/02/20 09:33:32;;;;;;;6.25;3.15;;;;;;;10.03;100.00;101009.78;5091625;28;20439;-48
2024/02/20 09:36:01;;;;;;;7.70;3.65;;;;;;;10.12;100.00;101012.03;5091471;28;20059;-44
2024/02/20 09:38:29;;;;;;;5.35;3.22;;;;;;;10.13;100.00;101026.22;5090469;28;20054;-45
2024/02/20 09:41:00;;;;;;;21.48;3.80;;;;;;;10.15;100.00;101017.25;5091413;28;20124;-46
2024/02/20 09:43:29;;;;;;;22.73;4.10;;;;;;;10.13;100.00;101024.41;5091071;28;20044;-45
2024/02/20 09:46:00;;;;;;;19.20;4.28;;;;;;;10.04;100.00;101024.88;5091014;28;20578;-44
2024/02/20 09:48:30;;;;;;;15.48;3.92;;;;;;;10.23;100.00;101023.13;5090832;28;20099;-45
2024/02/20 09:51:01;;;;;;;12.30;4.20;;;;;;;10.27;100.00;101035.34;5090717;28;20082;-44
2024/02/20 09:53:32;;;;;;;10.27;3.20;;;;;;;10.31;100.00;101031.59;5090989;28;20048;-45
2024/02/20 09:56:00;;;;;;;5.85;2.75;;;;;;;10.22;100.00;101029.34;5091052;28;20077;-45
2024/02/20 09:58:30;;;;;;;7.00;3.00;;;;;;;10.22;100.00;101029.34;5090847;28;20044;-45
2024/02/20 10:01:05;;;;;;;13.85;4.30;;;;;;;10.17;100.00;101043.81;5090993;28;20075;-46
2024/02/20 10:03:36;;;;;;;6.05;3.00;;;;;;;10.02;100.00;101037.38;5090862;28;20080;-45
2024/02/20 10:06:09;;;;;;;6.60;3.33;;;;;;;9.99;100.00;101032.19;5090941;28;20058;-45
2024/02/20 10:08:38;;;;;;;9.77;3.30;;;;;;;10.11;100.00;101031.63;5090972;28;20056;-44
2024/02/20 10:11:09;;;;;;;5.57;3.35;;;;;;;10.34;100.00;101032.41;5090733;28;20386;-45
2024/02/20 10:13:44;;;;;;;7.72;4.05;;;;;;;10.28;100.00;101026.41;5090820;28;20561;-45
2024/02/20 10:16:15;;;;;;;7.35;3.65;;;;;;;10.15;100.00;101022.56;5090426;28;20163;-45
2024/02/20 10:18:44;;;;;;;6.88;3.53;;;;;;;10.16;100.00;101021.63;5090380;28;20051;-45
2024/02/20 10:21:15;;;;;;;8.10;3.83;;;;;;;10.21;100.00;101005.41;5090831;28;20105;-44
2024/02/20 10:23:43;;;;;;;7.75;3.63;;;;;;;10.39;100.00;101011.72;5090860;28;20097;-45
2024/02/20 10:26:11;;;;;;;9.85;3.20;;;;;;;10.47;100.00;101009.56;5090583;28;20521;-44
2024/02/20 10:28:42;;;;;;;6.20;3.17;;;;;;;10.55;100.00;101020.72;5090482;28;20512;-45
2024/02/20 10:31:11;;;;;;;7.88;3.30;;;;;;;10.79;100.00;101006.19;5089653;28;20448;-43
2024/02/20 10:33:39;;;;;;;8.88;3.38;;;;;;;10.92;100.00;100998.47;5090090;28;20102;-47
2024/02/20 10:36:09;;;;;;;7.50;2.97;;;;;;;11.17;100.00;100993.59;5089703;28;20481;-45
2024/02/20 10:38:38;;;;;;;6.10;2.78;;;;;;;11.27;100.00;100993.97;5087614;28;20036;-44
2024/02/20 10:41:14;;;;;;;6.75;2.95;;;;;;;11.45;100.00;100995.72;5089451;28;20048;-45
2024/02/20 10:43:47;;;;;;;7.95;2.50;;;;;;;11.43;100.00;100984.25;5089937;28;20386;-43
2024/02/20 10:46:16;;;;;;;7.75;2.58;;;;;;;11.64;100.00;100970.69;5090243;28;20532;-44
2024/02/20 10:48:46;;;;;;;6.63;2.50;;;;;;;11.73;100.00;100979.09;5092281;28;20047;-47
2024/02/20 10:51:18;;;;;;;4.57;2.47;;;;;;;11.73;100.00;100970.22;5094587;28;20044;-47
2024/02/20 10:53:51;;;;;;;5.47;2.38;;;;;;;11.82;100.00;100968.88;5094171;28;20473;-46
2024/02/20 10:56:21;;;;;;;4.20;2.25;;;;;;;11.84;100.00;100962.50;5094552;28;20048;-47
2024/02/20 10:58:50;;;;;;;6.35;2.33;;;;;;;11.95;100.00;100965.44;5094398;28;20201;-45
2024/02/20 11:01:19;;;;;;;10.23;2.80;;;;;;;11.99;100.00;100959.00;5094194;28;20404;-46
2024/02/20 11:03:48;;;;;;;8.77;3.15;;;;;;;12.10;100.00;100966.44;5094208;28;20055;-44
2024/02/20 11:06:32;;;;;;;14.00;5.30;;;;;;;12.03;100.00;100957.88;5094217;28;20097;-46
2024/02/20 11:09:13;;;;;;;12.15;4.30;;;;;;;12.10;100.00;100954.88;5093751;28;20048;-45
2024/02/20 11:11:42;;;;;;;6.55;3.10;;;;;;;12.11;100.00;100960.13;5093330;28;20044;-46
2024/02/20 11:14:10;;;;;;;5.28;2.72;;;;;;;12.08;100.00;100946.09;5093404;28;20044;-45
2024/02/20 11:16:40;;;;;;;5.63;2.95;;;;;;;12.09;100.00;100939.78;5093257;28;20044;-45
2024/02/20 11:19:25;;;;;;;6.88;3.03;;;;;;;12.41;100.00;100937.97;5093648;28;20181;-47
2024/02/20 11:21:54;;;;;;;6.18;2.83;;;;;;;12.33;100.00;100935.72;5093673;28;20420;-46
2024/02/20 11:24:32;;;;;;;6.13;3.00;;;;;;;12.43;100.00;100928.91;5093736;28;20046;-47
2024/02/20 11:27:03;;;;;;;6.38;2.97;;;;;;;12.46;100.00;100928.75;5093323;28;20048;-45
2024/02/20 11:29:31;;;;;;;6.53;3.30;;;;;;;12.50;100.00;100930.28;5093674;28;20080;-44
2024/02/20 11:32:12;;;;;;;5.05;2.67;;;;;;;12.61;100.00;100926.97;5093564;28;20086;-45